sensor_id;sensor_type;location;lat;lon;timestamp;P1;durP1;ratioP1;P2;durP2;ratioP2
41903;SDS011;27586;51.124;4.182;2022-12-05T00:02:22;44.38;;;24.83;;
41903;SDS011;27586;51.124;4.182;2022-12-05T00:04:48;46.70;;;25.20;;
41903;SDS011;27586;51.124;4.182;2022-12-05T00:07:13;46.97;;;24.70;;
41903;SDS011;27586;51.124;4.182;2022-12-05T00:09:39;39.57;;;23.87;;
41903;SDS011;27586;51.124;4.182;2022-12-05T00:12:05;40.83;;;23.87;;
41903;SDS011;27586;51.124;4.182;2022-12-05T00:14:30;40.63;;;23.77;;
41903;SDS011;27586;51.124;4.182;2022-12-05T00:16:56;42.33;;;24.80;;
41903;SDS011;27586;51.124;4.182;2022-12-05T00:19:21;40.55;;;24.45;;
41903;SDS011;27586;51.124;4.182;2022-12-05T00:21:47;44.37;;;24.83;;
41903;SDS011;27586;51.124;4.182;2022-12-05T00:24:14;40.90;;;22.30;;
41903;SDS011;27586;51.124;4.182;2022-12-05T00:26:40;40.90;;;23.73;;
41903;SDS011;27586;51.124;4.182;2022-12-05T00:29:07;40.67;;;23.50;;
41903;SDS011;27586;51.124;4.182;2022-12-05T00:31:33;41.13;;;23.23;;
41903;SDS011;27586;51.124;4.182;2022-12-05T00:34:00;39.03;;;22.30;;
41903;SDS011;27586;51.124;4.182;2022-12-05T00:36:27;36.03;;;22.73;;
41903;SDS011;27586;51.124;4.182;2022-12-05T00:38:54;42.72;;;24.10;;
41903;SDS011;27586;51.124;4.182;2022-12-05T00:41:21;36.85;;;22.95;;
41903;SDS011;27586;51.124;4.182;2022-12-05T00:43:48;41.83;;;24.20;;
41903;SDS011;27586;51.124;4.182;2022-12-05T00:46:16;37.13;;;23.37;;
41903;SDS011;27586;51.124;4.182;2022-12-05T00:48:43;38.30;;;23.52;;
41903;SDS011;27586;51.124;4.182;2022-12-05T00:51:13;37.70;;;22.33;;
41903;SDS011;27586;51.124;4.182;2022-12-05T00:53:42;34.53;;;21.98;;
41903;SDS011;27586;51.124;4.182;2022-12-05T00:56:09;36.75;;;22.48;;
41903;SDS011;27586;51.124;4.182;2022-12-05T00:58:37;32.47;;;20.17;;
41903;SDS011;27586;51.124;4.182;2022-12-05T01:03:33;34.27;;;21.13;;
41903;SDS011;27586;51.124;4.182;2022-12-05T01:05:59;34.47;;;21.45;;
41903;SDS011;27586;51.124;4.182;2022-12-05T01:08:24;33.40;;;20.98;;
41903;SDS011;27586;51.124;4.182;2022-12-05T01:10:51;34.55;;;21.27;;
41903;SDS011;27586;51.124;4.182;2022-12-05T01:13:21;33.90;;;20.70;;
41903;SDS011;27586;51.124;4.182;2022-12-05T01:15:49;31.45;;;20.35;;
41903;SDS011;27586;51.124;4.182;2022-12-05T01:18:15;34.93;;;21.33;;
41903;SDS011;27586;51.124;4.182;2022-12-05T01:20:41;33.73;;;21.07;;
41903;SDS011;27586;51.124;4.182;2022-12-05T01:23:07;36.63;;;20.95;;
41903;SDS011;27586;51.124;4.182;2022-12-05T01:25:33;33.33;;;20.10;;
41903;SDS011;27586;51.124;4.182;2022-12-05T01:27:59;35.38;;;21.15;;
41903;SDS011;27586;51.124;4.182;2022-12-05T01:30:25;31.73;;;19.77;;
41903;SDS011;27586;51.124;4.182;2022-12-05T01:32:51;37.95;;;21.50;;
41903;SDS011;27586;51.124;4.182;2022-12-05T01:35:16;35.72;;;21.50;;
41903;SDS011;27586;51.124;4.182;2022-12-05T01:37:42;33.72;;;21.10;;
41903;SDS011;27586;51.124;4.182;2022-12-05T01:40:08;38.43;;;22.63;;
41903;SDS011;27586;51.124;4.182;2022-12-05T01:42:34;36.03;;;22.20;;
41903;SDS011;27586;51.124;4.182;2022-12-05T01:45:02;34.92;;;21.55;;
41903;SDS011;27586;51.124;4.182;2022-12-05T01:47:53;36.63;;;21.37;;
41903;SDS011;27586;51.124;4.182;2022-12-05T01:50:19;35.63;;;21.42;;
41903;SDS011;27586;51.124;4.182;2022-12-05T01:52:45;40.37;;;22.67;;
41903;SDS011;27586;51.124;4.182;2022-12-05T01:55:12;33.73;;;20.93;;
41903;SDS011;27586;51.124;4.182;2022-12-05T01:57:39;38.95;;;22.33;;
41903;SDS011;27586;51.124;4.182;2022-12-05T02:00:16;37.40;;;23.48;;
41903;SDS011;27586;51.124;4.182;2022-12-05T02:02:47;36.17;;;22.52;;
41903;SDS011;27586;51.124;4.182;2022-12-05T02:05:21;36.90;;;22.55;;
41903;SDS011;27586;51.124;4.182;2022-12-05T02:07:50;39.10;;;22.80;;
41903;SDS011;27586;51.124;4.182;2022-12-05T02:10:16;39.80;;;22.33;;
41903;SDS011;27586;51.124;4.182;2022-12-05T02:12:43;36.47;;;22.77;;
41903;SDS011;27586;51.124;4.182;2022-12-05T02:15:13;41.72;;;23.42;;
41903;SDS011;27586;51.124;4.182;2022-12-05T02:20:36;40.15;;;21.65;;
41903;SDS011;27586;51.124;4.182;2022-12-05T02:31:47;44.90;;;22.98;;
41903;SDS011;27586;51.124;4.182;2022-12-05T02:34:41;39.50;;;22.98;;
41903;SDS011;27586;51.124;4.182;2022-12-05T02:37:17;39.60;;;23.23;;
41903;SDS011;27586;51.124;4.182;2022-12-05T02:40:09;41.33;;;23.05;;
41903;SDS011;27586;51.124;4.182;2022-12-05T02:45:15;41.80;;;23.45;;
41903;SDS011;27586;51.124;4.182;2022-12-05T02:47:47;39.78;;;23.60;;
41903;SDS011;27586;51.124;4.182;2022-12-05T02:50:16;39.70;;;22.63;;
41903;SDS011;27586;51.124;4.182;2022-12-05T02:52:47;40.67;;;22.85;;
41903;SDS011;27586;51.124;4.182;2022-12-05T02:55:14;44.42;;;23.75;;
41903;SDS011;27586;51.124;4.182;2022-12-05T02:57:42;37.95;;;23.50;;
41903;SDS011;27586;51.124;4.182;2022-12-05T03:00:13;40.72;;;22.67;;
41903;SDS011;27586;51.124;4.182;2022-12-05T03:02:39;45.75;;;23.77;;
41903;SDS011;27586;51.124;4.182;2022-12-05T03:07:43;41.83;;;23.40;;
41903;SDS011;27586;51.124;4.182;2022-12-05T03:10:12;43.20;;;23.70;;
41903;SDS011;27586;51.124;4.182;2022-12-05T03:12:40;44.80;;;25.08;;
41903;SDS011;27586;51.124;4.182;2022-12-05T03:15:13;43.28;;;24.77;;
41903;SDS011;27586;51.124;4.182;2022-12-05T03:17:50;39.47;;;23.67;;
41903;SDS011;27586;51.124;4.182;2022-12-05T03:20:23;42.00;;;24.20;;
41903;SDS011;27586;51.124;4.182;2022-12-05T03:22:53;47.80;;;25.70;;
41903;SDS011;27586;51.124;4.182;2022-12-05T03:25:21;48.75;;;25.77;;
41903;SDS011;27586;51.124;4.182;2022-12-05T03:27:52;48.97;;;25.65;;
41903;SDS011;27586;51.124;4.182;2022-12-05T03:30:42;45.67;;;24.70;;
41903;SDS011;27586;51.124;4.182;2022-12-05T03:33:09;39.50;;;24.08;;
41903;SDS011;27586;51.124;4.182;2022-12-05T03:46:03;40.38;;;24.42;;
41903;SDS011;27586;51.124;4.182;2022-12-05T03:51:19;43.35;;;25.13;;
41903;SDS011;27586;51.124;4.182;2022-12-05T03:53:52;51.08;;;26.15;;
41903;SDS011;27586;51.124;4.182;2022-12-05T03:56:44;48.67;;;25.48;;
41903;SDS011;27586;51.124;4.182;2022-12-05T04:02:09;45.80;;;25.67;;
41903;SDS011;27586;51.124;4.182;2022-12-05T04:04:49;46.17;;;25.00;;
41903;SDS011;27586;51.124;4.182;2022-12-05T04:07:26;46.35;;;26.10;;
41903;SDS011;27586;51.124;4.182;2022-12-05T04:09:56;49.90;;;26.65;;
41903;SDS011;27586;51.124;4.182;2022-12-05T04:12:26;53.22;;;27.42;;
41903;SDS011;27586;51.124;4.182;2022-12-05T04:15:05;51.22;;;27.50;;
41903;SDS011;27586;51.124;4.182;2022-12-05T04:20:31;52.95;;;27.83;;
41903;SDS011;27586;51.124;4.182;2022-12-05T04:23:21;57.08;;;27.75;;
41903;SDS011;27586;51.124;4.182;2022-12-05T04:28:47;59.05;;;29.45;;
41903;SDS011;27586;51.124;4.182;2022-12-05T04:31:23;55.90;;;28.65;;
41903;SDS011;27586;51.124;4.182;2022-12-05T04:33:56;51.67;;;28.38;;
41903;SDS011;27586;51.124;4.182;2022-12-05T04:36:37;57.67;;;29.88;;
41903;SDS011;27586;51.124;4.182;2022-12-05T04:39:18;52.45;;;27.60;;
41903;SDS011;27586;51.124;4.182;2022-12-05T04:41:56;53.78;;;27.35;;
41903;SDS011;27586;51.124;4.182;2022-12-05T04:44:27;54.75;;;28.10;;
41903;SDS011;27586;51.124;4.182;2022-12-05T04:46:58;54.67;;;27.27;;
41903;SDS011;27586;51.124;4.182;2022-12-05T04:49:27;58.25;;;28.23;;
41903;SDS011;27586;51.124;4.182;2022-12-05T04:51:55;53.17;;;27.38;;
41903;SDS011;27586;51.124;4.182;2022-12-05T04:54:42;51.88;;;27.55;;
41903;SDS011;27586;51.124;4.182;2022-12-05T04:57:24;52.67;;;26.67;;
41903;SDS011;27586;51.124;4.182;2022-12-05T04:59:54;49.72;;;26.52;;
41903;SDS011;27586;51.124;4.182;2022-12-05T05:03:06;53.55;;;26.65;;
41903;SDS011;27586;51.124;4.182;2022-12-05T05:05:15;49.15;;;25.92;;
41903;SDS011;27586;51.124;4.182;2022-12-05T05:07:44;51.65;;;26.20;;
41903;SDS011;27586;51.124;4.182;2022-12-05T05:10:30;46.22;;;26.55;;
41903;SDS011;27586;51.124;4.182;2022-12-05T05:12:59;48.88;;;26.10;;
41903;SDS011;27586;51.124;4.182;2022-12-05T05:15:25;48.15;;;27.15;;
41903;SDS011;27586;51.124;4.182;2022-12-05T05:17:50;50.97;;;27.48;;
41903;SDS011;27586;51.124;4.182;2022-12-05T05:20:16;57.13;;;27.30;;
41903;SDS011;27586;51.124;4.182;2022-12-05T05:22:48;50.28;;;27.17;;
41903;SDS011;27586;51.124;4.182;2022-12-05T05:25:18;47.65;;;26.20;;
41903;SDS011;27586;51.124;4.182;2022-12-05T05:27:48;50.90;;;27.75;;
41903;SDS011;27586;51.124;4.182;2022-12-05T05:30:15;48.90;;;26.80;;
41903;SDS011;27586;51.124;4.182;2022-12-05T05:32:41;51.30;;;28.02;;
41903;SDS011;27586;51.124;4.182;2022-12-05T05:35:07;52.97;;;26.30;;
41903;SDS011;27586;51.124;4.182;2022-12-05T05:37:33;50.55;;;27.58;;
41903;SDS011;27586;51.124;4.182;2022-12-05T05:39:58;49.92;;;26.60;;
41903;SDS011;27586;51.124;4.182;2022-12-05T05:42:24;47.80;;;27.45;;
41903;SDS011;27586;51.124;4.182;2022-12-05T05:44:50;48.53;;;28.02;;
41903;SDS011;27586;51.124;4.182;2022-12-05T05:47:15;44.70;;;25.70;;
41903;SDS011;27586;51.124;4.182;2022-12-05T05:49:41;52.03;;;27.58;;
41903;SDS011;27586;51.124;4.182;2022-12-05T05:52:07;57.00;;;32.10;;
41903;SDS011;27586;51.124;4.182;2022-12-05T05:54:36;68.28;;;39.90;;
41903;SDS011;27586;51.124;4.182;2022-12-05T05:57:02;104.60;;;57.05;;
41903;SDS011;27586;51.124;4.182;2022-12-05T05:59:27;98.75;;;54.55;;
41903;SDS011;27586;51.124;4.182;2022-12-05T06:01:53;77.50;;;44.70;;
41903;SDS011;27586;51.124;4.182;2022-12-05T06:04:18;56.15;;;30.70;;
41903;SDS011;27586;51.124;4.182;2022-12-05T06:06:44;53.22;;;31.02;;
41903;SDS011;27586;51.124;4.182;2022-12-05T06:09:10;49.80;;;30.65;;
41903;SDS011;27586;51.124;4.182;2022-12-05T06:11:35;48.55;;;28.75;;
41903;SDS011;27586;51.124;4.182;2022-12-05T06:14:01;49.83;;;27.70;;
41903;SDS011;27586;51.124;4.182;2022-12-05T06:16:27;46.80;;;28.17;;
41903;SDS011;27586;51.124;4.182;2022-12-05T06:18:54;43.30;;;26.27;;
41903;SDS011;27586;51.124;4.182;2022-12-05T06:21:23;47.53;;;26.83;;
41903;SDS011;27586;51.124;4.182;2022-12-05T06:23:49;46.85;;;26.70;;
41903;SDS011;27586;51.124;4.182;2022-12-05T06:26:16;54.30;;;28.63;;
41903;SDS011;27586;51.124;4.182;2022-12-05T06:28:43;47.90;;;26.60;;
41903;SDS011;27586;51.124;4.182;2022-12-05T06:31:10;50.13;;;29.73;;
41903;SDS011;27586;51.124;4.182;2022-12-05T06:33:38;49.72;;;28.80;;
41903;SDS011;27586;51.124;4.182;2022-12-05T06:36:06;52.13;;;30.13;;
41903;SDS011;27586;51.124;4.182;2022-12-05T06:38:34;46.72;;;27.90;;
41903;SDS011;27586;51.124;4.182;2022-12-05T06:40:59;52.53;;;30.15;;
41903;SDS011;27586;51.124;4.182;2022-12-05T06:43:30;46.67;;;28.13;;
41903;SDS011;27586;51.124;4.182;2022-12-05T06:45:55;51.22;;;28.90;;
41903;SDS011;27586;51.124;4.182;2022-12-05T06:48:21;47.25;;;27.73;;
41903;SDS011;27586;51.124;4.182;2022-12-05T06:50:50;44.88;;;26.20;;
41903;SDS011;27586;51.124;4.182;2022-12-05T06:53:17;50.60;;;27.98;;
41903;SDS011;27586;51.124;4.182;2022-12-05T06:55:44;48.70;;;27.77;;
41903;SDS011;27586;51.124;4.182;2022-12-05T06:58:18;48.00;;;26.85;;
41903;SDS011;27586;51.124;4.182;2022-12-05T07:00:44;52.83;;;27.20;;
41903;SDS011;27586;51.124;4.182;2022-12-05T07:03:28;50.38;;;28.45;;
41903;SDS011;27586;51.124;4.182;2022-12-05T07:05:54;53.25;;;29.33;;
41903;SDS011;27586;51.124;4.182;2022-12-05T07:08:19;59.00;;;35.80;;
41903;SDS011;27586;51.124;4.182;2022-12-05T07:10:54;57.78;;;31.15;;
41903;SDS011;27586;51.124;4.182;2022-12-05T07:13:20;58.10;;;29.55;;
41903;SDS011;27586;51.124;4.182;2022-12-05T07:15:46;56.70;;;29.23;;
41903;SDS011;27586;51.124;4.182;2022-12-05T07:18:13;61.47;;;33.25;;
41903;SDS011;27586;51.124;4.182;2022-12-05T07:20:39;60.22;;;29.40;;
41903;SDS011;27586;51.124;4.182;2022-12-05T07:23:05;58.75;;;30.45;;
41903;SDS011;27586;51.124;4.182;2022-12-05T07:25:31;54.10;;;28.85;;
41903;SDS011;27586;51.124;4.182;2022-12-05T07:27:57;54.90;;;29.80;;
41903;SDS011;27586;51.124;4.182;2022-12-05T07:30:23;52.80;;;28.33;;
41903;SDS011;27586;51.124;4.182;2022-12-05T07:32:48;60.90;;;29.83;;
41903;SDS011;27586;51.124;4.182;2022-12-05T07:35:14;64.03;;;29.98;;
41903;SDS011;27586;51.124;4.182;2022-12-05T07:37:40;53.55;;;29.33;;
41903;SDS011;27586;51.124;4.182;2022-12-05T07:40:06;55.60;;;30.50;;
41903;SDS011;27586;51.124;4.182;2022-12-05T07:42:33;54.92;;;29.88;;
41903;SDS011;27586;51.124;4.182;2022-12-05T07:44:58;58.90;;;31.20;;
41903;SDS011;27586;51.124;4.182;2022-12-05T07:47:24;58.95;;;32.58;;
41903;SDS011;27586;51.124;4.182;2022-12-05T07:49:49;58.33;;;31.48;;
41903;SDS011;27586;51.124;4.182;2022-12-05T07:52:19;53.05;;;30.13;;
41903;SDS011;27586;51.124;4.182;2022-12-05T07:54:44;58.20;;;29.20;;
41903;SDS011;27586;51.124;4.182;2022-12-05T07:57:10;52.03;;;29.00;;
41903;SDS011;27586;51.124;4.182;2022-12-05T07:59:36;55.50;;;31.40;;
41903;SDS011;27586;51.124;4.182;2022-12-05T08:02:01;63.80;;;31.02;;
41903;SDS011;27586;51.124;4.182;2022-12-05T08:04:27;58.42;;;30.08;;
41903;SDS011;27586;51.124;4.182;2022-12-05T08:06:53;61.03;;;30.48;;
41903;SDS011;27586;51.124;4.182;2022-12-05T08:09:18;53.15;;;29.48;;
41903;SDS011;27586;51.124;4.182;2022-12-05T08:11:44;58.83;;;30.63;;
41903;SDS011;27586;51.124;4.182;2022-12-05T08:14:09;56.83;;;30.75;;
41903;SDS011;27586;51.124;4.182;2022-12-05T08:16:35;62.63;;;32.22;;
41903;SDS011;27586;51.124;4.182;2022-12-05T08:19:03;55.60;;;31.42;;
41903;SDS011;27586;51.124;4.182;2022-12-05T08:21:30;53.40;;;30.20;;
41903;SDS011;27586;51.124;4.182;2022-12-05T08:23:56;63.90;;;31.08;;
41903;SDS011;27586;51.124;4.182;2022-12-05T08:26:24;58.75;;;30.55;;
41903;SDS011;27586;51.124;4.182;2022-12-05T08:28:55;60.38;;;30.52;;
41903;SDS011;27586;51.124;4.182;2022-12-05T08:31:24;67.03;;;35.00;;
41903;SDS011;27586;51.124;4.182;2022-12-05T08:33:51;65.68;;;32.22;;
41903;SDS011;27586;51.124;4.182;2022-12-05T08:36:17;64.18;;;34.67;;
41903;SDS011;27586;51.124;4.182;2022-12-05T08:38:43;57.40;;;30.25;;
41903;SDS011;27586;51.124;4.182;2022-12-05T08:41:11;67.30;;;33.35;;
41903;SDS011;27586;51.124;4.182;2022-12-05T08:43:39;60.63;;;31.88;;
41903;SDS011;27586;51.124;4.182;2022-12-05T08:46:05;55.72;;;32.38;;
41903;SDS011;27586;51.124;4.182;2022-12-05T08:48:31;63.92;;;36.38;;
41903;SDS011;27586;51.124;4.182;2022-12-05T08:50:58;59.85;;;30.75;;
41903;SDS011;27586;51.124;4.182;2022-12-05T08:53:28;56.45;;;30.25;;
41903;SDS011;27586;51.124;4.182;2022-12-05T08:55:54;52.70;;;29.98;;
41903;SDS011;27586;51.124;4.182;2022-12-05T08:58:20;57.72;;;40.65;;
41903;SDS011;27586;51.124;4.182;2022-12-05T09:00:45;53.75;;;30.02;;
41903;SDS011;27586;51.124;4.182;2022-12-05T09:03:11;51.63;;;29.90;;
41903;SDS011;27586;51.124;4.182;2022-12-05T09:05:37;54.15;;;29.55;;
41903;SDS011;27586;51.124;4.182;2022-12-05T09:08:03;57.30;;;30.70;;
41903;SDS011;27586;51.124;4.182;2022-12-05T09:10:29;54.20;;;29.95;;
41903;SDS011;27586;51.124;4.182;2022-12-05T09:12:55;52.83;;;29.38;;
41903;SDS011;27586;51.124;4.182;2022-12-05T09:15:24;68.15;;;44.80;;
41903;SDS011;27586;51.124;4.182;2022-12-05T09:17:49;59.42;;;40.90;;
41903;SDS011;27586;51.124;4.182;2022-12-05T09:20:15;63.58;;;43.15;;
41903;SDS011;27586;51.124;4.182;2022-12-05T09:22:40;55.20;;;41.08;;
41903;SDS011;27586;51.124;4.182;2022-12-05T09:25:07;50.95;;;38.85;;
41903;SDS011;27586;51.124;4.182;2022-12-05T09:27:33;53.35;;;31.55;;
41903;SDS011;27586;51.124;4.182;2022-12-05T09:29:58;54.42;;;31.50;;
41903;SDS011;27586;51.124;4.182;2022-12-05T09:32:24;45.75;;;29.85;;
41903;SDS011;27586;51.124;4.182;2022-12-05T09:34:50;49.05;;;29.08;;
41903;SDS011;27586;51.124;4.182;2022-12-05T09:37:15;49.08;;;28.05;;
41903;SDS011;27586;51.124;4.182;2022-12-05T09:39:42;42.90;;;26.42;;
41903;SDS011;27586;51.124;4.182;2022-12-05T09:45:50;62.00;;;41.10;;
41903;SDS011;27586;51.124;4.182;2022-12-05T09:48:24;52.40;;;29.23;;
41903;SDS011;27586;51.124;4.182;2022-12-05T09:50:59;45.33;;;26.67;;
41903;SDS011;27586;51.124;4.182;2022-12-05T09:58:46;46.88;;;28.10;;
41903;SDS011;27586;51.124;4.182;2022-12-05T10:17:34;42.97;;;26.40;;
41903;SDS011;27586;51.124;4.182;2022-12-05T10:20:18;38.03;;;24.50;;
41903;SDS011;27586;51.124;4.182;2022-12-05T10:22:49;39.70;;;24.20;;
41903;SDS011;27586;51.124;4.182;2022-12-05T10:25:22;33.40;;;22.40;;
41903;SDS011;27586;51.124;4.182;2022-12-05T10:27:54;34.28;;;22.33;;
41903;SDS011;27586;51.124;4.182;2022-12-05T10:30:24;37.03;;;31.77;;
41903;SDS011;27586;51.124;4.182;2022-12-05T10:32:56;28.23;;;25.23;;
41903;SDS011;27586;51.124;4.182;2022-12-05T10:35:36;32.67;;;26.77;;
41903;SDS011;27586;51.124;4.182;2022-12-05T10:38:04;31.92;;;28.58;;
41903;SDS011;27586;51.124;4.182;2022-12-05T10:40:47;31.42;;;27.23;;
41903;SDS011;27586;51.124;4.182;2022-12-05T10:43:17;33.35;;;27.35;;
41903;SDS011;27586;51.124;4.182;2022-12-05T10:45:49;29.05;;;25.67;;
41903;SDS011;27586;51.124;4.182;2022-12-05T10:48:16;33.85;;;26.38;;
41903;SDS011;27586;51.124;4.182;2022-12-05T10:50:44;31.23;;;26.42;;
41903;SDS011;27586;51.124;4.182;2022-12-05T10:53:16;39.17;;;35.05;;
41903;SDS011;27586;51.124;4.182;2022-12-05T10:55:50;31.98;;;28.50;;
41903;SDS011;27586;51.124;4.182;2022-12-05T10:58:34;36.80;;;25.13;;
41903;SDS011;27586;51.124;4.182;2022-12-05T11:01:07;32.40;;;22.67;;
41903;SDS011;27586;51.124;4.182;2022-12-05T11:03:38;30.20;;;21.30;;
41903;SDS011;27586;51.124;4.182;2022-12-05T11:06:20;29.73;;;20.85;;
41903;SDS011;27586;51.124;4.182;2022-12-05T11:09:04;30.92;;;21.90;;
41903;SDS011;27586;51.124;4.182;2022-12-05T11:11:56;28.95;;;21.63;;
41903;SDS011;27586;51.124;4.182;2022-12-05T11:14:28;26.90;;;20.65;;
41903;SDS011;27586;51.124;4.182;2022-12-05T11:16:56;27.85;;;24.92;;
41903;SDS011;27586;51.124;4.182;2022-12-05T11:21:48;40.88;;;37.33;;
41903;SDS011;27586;51.124;4.182;2022-12-05T11:24:21;44.95;;;41.03;;
41903;SDS011;27586;51.124;4.182;2022-12-05T11:26:51;29.50;;;26.50;;
41903;SDS011;27586;51.124;4.182;2022-12-05T11:29:33;22.73;;;20.42;;
41903;SDS011;27586;51.124;4.182;2022-12-05T11:32:00;22.63;;;20.45;;
41903;SDS011;27586;51.124;4.182;2022-12-05T11:34:37;22.33;;;20.08;;
41903;SDS011;27586;51.124;4.182;2022-12-05T11:37:12;24.20;;;21.80;;
41903;SDS011;27586;51.124;4.182;2022-12-05T11:39:42;24.02;;;21.63;;
41903;SDS011;27586;51.124;4.182;2022-12-05T11:44:57;18.92;;;17.13;;
41903;SDS011;27586;51.124;4.182;2022-12-05T11:50:19;18.40;;;16.58;;
41903;SDS011;27586;51.124;4.182;2022-12-05T11:53:10;18.10;;;16.40;;
41903;SDS011;27586;51.124;4.182;2022-12-05T11:55:42;21.80;;;19.80;;
41903;SDS011;27586;51.124;4.182;2022-12-05T12:20:13;16.88;;;15.48;;
41903;SDS011;27586;51.124;4.182;2022-12-05T12:25:54;12.95;;;11.18;;
41903;SDS011;27586;51.124;4.182;2022-12-05T12:28:44;16.75;;;11.43;;
41903;SDS011;27586;51.124;4.182;2022-12-05T12:31:30;15.00;;;11.95;;
41903;SDS011;27586;51.124;4.182;2022-12-05T12:34:28;17.00;;;15.20;;
41903;SDS011;27586;51.124;4.182;2022-12-05T12:37:02;17.17;;;15.48;;
41903;SDS011;27586;51.124;4.182;2022-12-05T12:42:26;17.40;;;15.60;;
41903;SDS011;27586;51.124;4.182;2022-12-05T12:48:08;18.67;;;16.88;;
41903;SDS011;27586;51.124;4.182;2022-12-05T12:50:57;18.55;;;16.67;;
41903;SDS011;27586;51.124;4.182;2022-12-05T13:04:04;18.48;;;16.67;;
41903;SDS011;27586;51.124;4.182;2022-12-05T13:06:40;20.25;;;13.18;;
41903;SDS011;27586;51.124;4.182;2022-12-05T13:09:27;17.73;;;13.20;;
41903;SDS011;27586;51.124;4.182;2022-12-05T13:12:22;18.77;;;14.27;;
41903;SDS011;27586;51.124;4.182;2022-12-05T13:14:59;18.58;;;15.20;;
41903;SDS011;27586;51.124;4.182;2022-12-05T13:17:28;19.02;;;17.02;;
41903;SDS011;27586;51.124;4.182;2022-12-05T13:19:56;19.25;;;17.33;;
41903;SDS011;27586;51.124;4.182;2022-12-05T13:22:23;19.27;;;17.33;;
41903;SDS011;27586;51.124;4.182;2022-12-05T13:24:52;21.58;;;18.63;;
41903;SDS011;27586;51.124;4.182;2022-12-05T13:27:20;24.05;;;20.35;;
41903;SDS011;27586;51.124;4.182;2022-12-05T13:29:49;20.35;;;18.25;;
41903;SDS011;27586;51.124;4.182;2022-12-05T13:32:34;21.77;;;15.00;;
41903;SDS011;27586;51.124;4.182;2022-12-05T13:37:31;23.27;;;16.20;;
41903;SDS011;27586;51.124;4.182;2022-12-05T13:40:29;25.67;;;17.70;;
41903;SDS011;27586;51.124;4.182;2022-12-05T13:43:22;26.30;;;22.80;;
41903;SDS011;27586;51.124;4.182;2022-12-05T13:48:39;30.48;;;25.67;;
41903;SDS011;27586;51.124;4.182;2022-12-05T13:51:19;28.48;;;19.10;;
41903;SDS011;27586;51.124;4.182;2022-12-05T13:54:00;38.17;;;22.60;;
41903;SDS011;27586;51.124;4.182;2022-12-05T14:05:52;38.13;;;31.65;;
41903;SDS011;27586;51.124;4.182;2022-12-05T14:15:51;43.50;;;32.88;;
41903;SDS011;27586;51.124;4.182;2022-12-05T14:37:35;49.72;;;35.47;;
41903;SDS011;27586;51.124;4.182;2022-12-05T14:43:06;46.20;;;35.17;;
41903;SDS011;27586;51.124;4.182;2022-12-05T14:50:43;77.97;;;44.53;;
41903;SDS011;27586;51.124;4.182;2022-12-05T14:56:08;40.67;;;35.25;;
41903;SDS011;27586;51.124;4.182;2022-12-05T14:59:05;40.40;;;34.97;;
41903;SDS011;27586;51.124;4.182;2022-12-05T15:01:49;43.30;;;35.53;;
41903;SDS011;27586;51.124;4.182;2022-12-05T15:05:05;31.85;;;28.15;;
41903;SDS011;27586;51.124;4.182;2022-12-05T15:07:28;37.55;;;29.27;;
41903;SDS011;27586;51.124;4.182;2022-12-05T15:15:18;43.85;;;35.13;;
41903;SDS011;27586;51.124;4.182;2022-12-05T15:21:17;26.15;;;23.50;;
41903;SDS011;27586;51.124;4.182;2022-12-05T15:24:01;28.45;;;24.40;;
41903;SDS011;27586;51.124;4.182;2022-12-05T15:32:00;29.15;;;20.27;;
41903;SDS011;27586;51.124;4.182;2022-12-05T15:34:46;28.80;;;21.67;;
41903;SDS011;27586;51.124;4.182;2022-12-05T15:37:24;29.38;;;22.80;;
41903;SDS011;27586;51.124;4.182;2022-12-05T15:40:00;25.30;;;18.45;;
41903;SDS011;27586;51.124;4.182;2022-12-05T15:42:38;32.88;;;21.40;;
41903;SDS011;27586;51.124;4.182;2022-12-05T15:47:45;42.65;;;34.58;;
41903;SDS011;27586;51.124;4.182;2022-12-05T15:52:52;31.20;;;20.50;;
41903;SDS011;27586;51.124;4.182;2022-12-05T15:55:28;24.25;;;18.60;;
41903;SDS011;27586;51.124;4.182;2022-12-05T15:58:01;28.23;;;20.33;;
41903;SDS011;27586;51.124;4.182;2022-12-05T16:00:36;40.78;;;29.77;;
41903;SDS011;27586;51.124;4.182;2022-12-05T16:03:18;39.38;;;26.17;;
41903;SDS011;27586;51.124;4.182;2022-12-05T16:05:54;31.45;;;28.13;;
41903;SDS011;27586;51.124;4.182;2022-12-05T16:08:25;38.97;;;35.40;;
41903;SDS011;27586;51.124;4.182;2022-12-05T16:11:05;31.20;;;26.60;;
41903;SDS011;27586;51.124;4.182;2022-12-05T16:13:32;28.00;;;25.10;;
41903;SDS011;27586;51.124;4.182;2022-12-05T16:15:58;32.00;;;26.73;;
41903;SDS011;27586;51.124;4.182;2022-12-05T16:18:25;62.40;;;57.00;;
41903;SDS011;27586;51.124;4.182;2022-12-05T16:20:53;37.88;;;34.10;;
41903;SDS011;27586;51.124;4.182;2022-12-05T16:26:03;34.28;;;26.00;;
41903;SDS011;27586;51.124;4.182;2022-12-05T16:28:35;32.85;;;28.23;;
41903;SDS011;27586;51.124;4.182;2022-12-05T16:31:00;26.95;;;18.80;;
41903;SDS011;27586;51.124;4.182;2022-12-05T16:33:32;27.08;;;17.90;;
41903;SDS011;27586;51.124;4.182;2022-12-05T16:36:08;27.65;;;18.17;;
41903;SDS011;27586;51.124;4.182;2022-12-05T16:38:34;24.15;;;18.00;;
41903;SDS011;27586;51.124;4.182;2022-12-05T16:41:02;27.35;;;18.20;;
41903;SDS011;27586;51.124;4.182;2022-12-05T16:48:42;28.83;;;18.05;;
41903;SDS011;27586;51.124;4.182;2022-12-05T16:53:38;31.38;;;24.08;;
41903;SDS011;27586;51.124;4.182;2022-12-05T16:56:20;27.98;;;24.98;;
41903;SDS011;27586;51.124;4.182;2022-12-05T16:58:55;25.98;;;21.95;;
41903;SDS011;27586;51.124;4.182;2022-12-05T17:01:22;25.20;;;22.48;;
41903;SDS011;27586;51.124;4.182;2022-12-05T17:03:50;24.52;;;20.95;;
41903;SDS011;27586;51.124;4.182;2022-12-05T17:06:19;22.02;;;19.63;;
41903;SDS011;27586;51.124;4.182;2022-12-05T17:08:47;23.63;;;20.75;;
41903;SDS011;27586;51.124;4.182;2022-12-05T17:11:15;23.10;;;17.95;;
41903;SDS011;27586;51.124;4.182;2022-12-05T17:13:41;21.40;;;18.85;;
41903;SDS011;27586;51.124;4.182;2022-12-05T17:16:09;20.17;;;17.80;;
41903;SDS011;27586;51.124;4.182;2022-12-05T17:18:34;20.75;;;18.55;;
41903;SDS011;27586;51.124;4.182;2022-12-05T17:21:00;18.02;;;16.08;;
41903;SDS011;27586;51.124;4.182;2022-12-05T17:23:26;19.73;;;16.70;;
41903;SDS011;27586;51.124;4.182;2022-12-05T17:25:53;17.35;;;15.57;;
41903;SDS011;27586;51.124;4.182;2022-12-05T17:28:21;18.00;;;15.57;;
41903;SDS011;27586;51.124;4.182;2022-12-05T17:30:48;17.73;;;14.38;;
41903;SDS011;27586;51.124;4.182;2022-12-05T17:33:17;17.30;;;15.32;;
41903;SDS011;27586;51.124;4.182;2022-12-05T17:35:43;17.23;;;15.43;;
41903;SDS011;27586;51.124;4.182;2022-12-05T17:38:10;16.75;;;14.95;;
41903;SDS011;27586;51.124;4.182;2022-12-05T17:40:36;17.15;;;15.35;;
41903;SDS011;27586;51.124;4.182;2022-12-05T17:43:02;17.55;;;15.20;;
41903;SDS011;27586;51.124;4.182;2022-12-05T17:45:28;24.38;;;21.88;;
41903;SDS011;27586;51.124;4.182;2022-12-05T17:47:55;19.50;;;17.40;;
41903;SDS011;27586;51.124;4.182;2022-12-05T17:50:22;21.02;;;18.83;;
41903;SDS011;27586;51.124;4.182;2022-12-05T17:52:49;18.23;;;16.17;;
41903;SDS011;27586;51.124;4.182;2022-12-05T17:55:17;17.35;;;15.52;;
41903;SDS011;27586;51.124;4.182;2022-12-05T17:57:45;19.77;;;16.90;;
41903;SDS011;27586;51.124;4.182;2022-12-05T18:00:11;17.13;;;14.73;;